createdAt,value
2023-04-24T00:11:19.794Z,97.00
2023-04-24T00:31:17.148Z,99.90
2023-04-24T00:57:01.585Z,99.90
2023-04-24T01:22:12.944Z,99.90
2023-04-24T01:52:47.333Z,99.90
2023-04-24T02:17:24.556Z,99.90
2023-04-24T02:37:45.055Z,99.90
2023-04-24T03:08:48.313Z,99.90
2023-04-24T03:13:07.686Z,99.90
2023-04-24T03:44:11.876Z,99.90
2023-04-24T04:04:04.139Z,99.90
2023-04-24T04:34:04.419Z,99.90
2023-04-24T04:54:10.734Z,91.10
2023-04-24T05:54:40.280Z,81.90
2023-04-24T06:15:01.389Z,82.00
2023-04-24T06:40:46.157Z,81.20
2023-04-24T07:00:52.350Z,78.70
2023-04-24T07:26:37.219Z,76.40
2023-04-24T08:12:06.808Z,53.80
2023-04-24T08:32:08.719Z,52.40
2023-04-24T09:07:55.662Z,53.60
2023-04-24T09:28:02.604Z,52.60
2023-04-24T09:58:15.339Z,47.50
2023-04-24T10:18:23.428Z,50.10
2023-04-24T10:44:12.913Z,49.20
2023-04-24T11:09:32.414Z,45.80
2023-04-24T11:40:14.142Z,44.50
2023-04-24T12:05:02.135Z,45.40
2023-04-24T12:35:54.348Z,44.50
2023-04-24T13:05:43.364Z,45.30
2023-04-24T13:31:07.535Z,43.80
2023-04-24T13:46:49.928Z,44.20
2023-04-24T14:17:19.772Z,41.70
2023-04-24T14:42:30.630Z,42.10
2023-04-24T15:18:12.738Z,42.40
2023-04-24T15:48:34.391Z,44.30
2023-04-24T16:18:44.168Z,45.90
2023-04-24T16:44:13.918Z,44.80
2023-04-24T17:04:36.010Z,47.50
2023-04-24T17:24:54.053Z,66.10
2023-04-24T17:29:14.366Z,71.50
2023-04-24T18:40:52.505Z,80.50
2023-04-24T19:10:36.707Z,74.80
2023-04-24T19:31:27.014Z,71.00
2023-04-24T20:52:37.052Z,82.70
2023-04-24T21:22:25.140Z,85.10
2023-04-24T21:43:05.885Z,84.60
2023-04-24T22:18:46.527Z,89.60
2023-04-24T22:49:11.619Z,93.80
2023-04-24T23:24:03.975Z,95.10
2023-04-24T23:40:05.945Z,97.50
2023-04-24T23:44:14.200Z,98.10
